createdAt,value
2023-02-14T00:01:38.201Z,10.80
2023-02-14T00:04:44.399Z,12.13
2023-02-14T00:07:46.808Z,9.88
2023-02-14T00:10:49.329Z,10.80
2023-02-14T00:14:10.288Z,9.80
2023-02-14T00:17:13.046Z,9.38
2023-02-14T00:20:15.761Z,11.63
2023-02-14T00:23:18.051Z,10.90
2023-02-14T00:26:20.451Z,11.68
2023-02-14T00:29:29.132Z,10.57
2023-02-14T00:32:32.143Z,10.63
2023-02-14T00:36:07.269Z,10.15
2023-02-14T00:39:12.069Z,10.50
2023-02-14T00:42:14.953Z,10.60
2023-02-14T00:45:19.335Z,10.52
2023-02-14T00:48:21.819Z,10.50
2023-02-14T00:51:24.412Z,10.25
2023-02-14T00:54:26.961Z,9.07
2023-02-14T00:57:29.369Z,9.70
2023-02-14T01:00:32.909Z,9.35
2023-02-14T01:03:35.849Z,8.90
2023-02-14T01:06:38.744Z,9.45
2023-02-14T01:09:41.960Z,10.23
2023-02-14T01:12:44.390Z,7.97
2023-02-14T01:15:49.320Z,9.95
2023-02-14T01:18:52.156Z,10.13
2023-02-14T01:21:54.533Z,10.27
2023-02-14T01:24:58.210Z,9.55
2023-02-14T01:28:00.934Z,9.30
2023-02-14T01:31:12.790Z,10.95
2023-02-14T01:34:15.620Z,10.77
2023-02-14T01:37:18.150Z,10.30
2023-02-14T01:40:20.886Z,11.82
2023-02-14T01:43:23.797Z,12.32
2023-02-14T01:46:29.105Z,11.77
2023-02-14T01:49:48.698Z,11.77
2023-02-14T01:52:54.656Z,12.48
2023-02-14T01:56:05.801Z,11.25
2023-02-14T01:59:13.245Z,12.00
2023-02-14T02:02:23.897Z,12.15
2023-02-14T02:05:27.091Z,12.00
2023-02-14T02:08:30.096Z,9.63
2023-02-14T02:11:32.691Z,12.88
2023-02-14T02:14:35.821Z,13.88
2023-02-14T02:17:59.693Z,9.57
2023-02-14T02:21:18.375Z,9.05
2023-02-14T02:24:56.769Z,11.20
2023-02-14T02:28:32.673Z,12.23
2023-02-14T02:31:50.394Z,12.57
2023-02-14T02:35:18.595Z,11.90
2023-02-14T02:38:36.392Z,10.88
2023-02-14T02:41:57.313Z,11.18
2023-02-14T02:45:13.423Z,13.10
2023-02-14T02:48:20.930Z,13.40
2023-02-14T02:51:58.788Z,12.80
2023-02-14T02:55:06.055Z,13.15
2023-02-14T02:58:09.144Z,12.27
2023-02-14T03:01:24.788Z,13.25
2023-02-14T03:04:46.223Z,13.23
2023-02-14T03:07:49.782Z,11.57
2023-02-14T03:10:53.697Z,11.52
2023-02-14T03:14:09.373Z,11.90
2023-02-14T03:17:20.533Z,12.57
2023-02-14T03:20:38.033Z,13.18
2023-02-14T03:23:46.102Z,14.00
2023-02-14T03:26:57.511Z,14.82
2023-02-14T03:30:12.564Z,11.82
2023-02-14T03:33:21.716Z,12.07
2023-02-14T03:36:51.867Z,11.60
2023-02-14T03:40:07.536Z,13.10
2023-02-14T03:43:17.038Z,14.82
2023-02-14T03:46:27.640Z,13.02
2023-02-14T03:49:33.128Z,12.48
2023-02-14T03:52:36.794Z,11.13
2023-02-14T03:56:10.650Z,11.57
2023-02-14T03:59:20.164Z,13.00
2023-02-14T04:02:32.858Z,13.10
2023-02-14T04:05:35.606Z,13.45
2023-02-14T04:08:38.980Z,12.90
2023-02-14T04:11:41.680Z,10.70
2023-02-14T04:14:44.649Z,15.90
2023-02-14T04:18:05.866Z,13.32
2023-02-14T04:21:08.285Z,12.93
2023-02-14T04:24:10.836Z,13.13
2023-02-14T04:27:13.831Z,13.02
2023-02-14T04:30:18.281Z,12.60
2023-02-14T04:33:20.878Z,13.18
2023-02-14T04:36:23.350Z,14.07
2023-02-14T04:39:26.034Z,13.15
2023-02-14T04:42:28.487Z,14.35
2023-02-14T04:45:31.068Z,12.18
2023-02-14T04:48:33.610Z,12.65
2023-02-14T04:51:35.956Z,11.57
2023-02-14T04:54:38.385Z,11.88
2023-02-14T04:57:41.091Z,13.50
2023-02-14T05:00:43.730Z,13.63
2023-02-14T05:03:46.486Z,14.05
2023-02-14T05:06:48.978Z,12.50
2023-02-14T05:09:51.453Z,11.57
2023-02-14T05:12:54.040Z,13.85
2023-02-14T05:15:56.782Z,11.95
2023-02-14T05:18:59.353Z,11.15
2023-02-14T05:22:02.090Z,11.20
2023-02-14T05:25:04.495Z,13.02
2023-02-14T05:28:07.267Z,12.13
2023-02-14T05:31:10.289Z,13.93
2023-02-14T05:34:13.560Z,12.48
2023-02-14T05:37:15.913Z,10.40
2023-02-14T05:40:18.518Z,11.38
2023-02-14T05:43:21.832Z,12.13
2023-02-14T05:46:24.445Z,9.15
2023-02-14T05:49:26.877Z,11.30
2023-02-14T05:52:29.557Z,10.75
2023-02-14T05:55:32.424Z,13.18
2023-02-14T05:58:35.000Z,13.13
2023-02-14T06:01:37.447Z,12.93
2023-02-14T06:04:40.201Z,11.40
2023-02-14T06:07:43.755Z,10.38
2023-02-14T06:10:47.056Z,9.70
2023-02-14T06:13:49.608Z,7.03
2023-02-14T06:16:52.677Z,8.27
2023-02-14T06:19:55.160Z,6.80
2023-02-14T06:22:58.002Z,7.90
2023-02-14T06:26:00.598Z,8.60
2023-02-14T06:29:04.569Z,8.63
2023-02-14T06:32:07.469Z,8.30
2023-02-14T06:35:10.408Z,8.43
2023-02-14T06:38:12.841Z,8.15
2023-02-14T06:41:17.246Z,8.13
2023-02-14T06:44:20.125Z,8.85
2023-02-14T06:47:22.638Z,7.18
2023-02-14T06:50:25.093Z,7.72
2023-02-14T06:53:27.882Z,7.53
2023-02-14T06:56:30.220Z,8.52
2023-02-14T06:59:34.225Z,7.95
2023-02-14T07:05:39.389Z,9.52
2023-02-14T07:08:42.590Z,9.35
2023-02-14T07:11:46.445Z,7.40
2023-02-14T07:14:49.050Z,10.27
2023-02-14T07:17:51.654Z,11.32
2023-02-14T07:20:54.496Z,11.02
2023-02-14T07:23:57.013Z,10.65
2023-02-14T07:26:59.456Z,9.23
2023-02-14T07:30:02.407Z,8.68
2023-02-14T07:33:05.371Z,10.57
2023-02-14T07:36:09.383Z,10.32
2023-02-14T07:39:12.146Z,8.40
2023-02-14T07:42:14.876Z,9.05
2023-02-14T07:45:22.180Z,11.23
2023-02-14T07:48:25.505Z,10.77
2023-02-14T07:51:27.988Z,10.40
2023-02-14T07:54:30.418Z,10.05
2023-02-14T07:57:33.223Z,11.20
2023-02-14T08:00:36.261Z,11.10
2023-02-14T08:03:39.383Z,10.35
2023-02-14T08:06:42.962Z,10.07
2023-02-14T08:09:45.563Z,9.45
2023-02-14T08:13:00.422Z,9.38
2023-02-14T08:16:06.383Z,28.15
2023-02-14T08:19:09.219Z,8.35
2023-02-14T08:22:11.548Z,11.45
2023-02-14T08:25:13.861Z,9.52
2023-02-14T08:28:16.240Z,9.18
2023-02-14T08:31:35.063Z,7.90
2023-02-14T08:34:38.857Z,9.80
2023-02-14T08:37:41.653Z,7.97
2023-02-14T08:40:44.495Z,8.45
2023-02-14T08:43:46.952Z,12.63
2023-02-14T08:46:49.494Z,10.35
2023-02-14T08:49:52.096Z,7.50
2023-02-14T08:52:54.479Z,6.95
2023-02-14T08:55:56.997Z,7.65
2023-02-14T08:58:59.649Z,6.28
2023-02-14T09:02:02.088Z,6.88
2023-02-14T09:05:06.363Z,6.63
2023-02-14T09:08:08.975Z,7.20
2023-02-14T09:11:18.805Z,13.15
2023-02-14T09:14:21.938Z,9.40
2023-02-14T09:17:24.377Z,23.13
2023-02-14T09:20:27.107Z,9.30
2023-02-14T09:23:29.498Z,7.15
2023-02-14T09:26:34.881Z,11.05
2023-02-14T09:29:37.448Z,11.38
2023-02-14T09:32:39.851Z,13.57
2023-02-14T09:36:00.980Z,13.98
2023-02-14T09:39:03.753Z,9.73
2023-02-14T09:42:24.572Z,8.95
2023-02-14T09:45:28.840Z,6.63
2023-02-14T09:48:39.204Z,8.40
2023-02-14T09:51:48.923Z,8.18
2023-02-14T09:54:57.730Z,8.07
2023-02-14T09:58:13.699Z,6.65
2023-02-14T10:01:22.255Z,7.68
2023-02-14T10:04:27.713Z,7.43
2023-02-14T10:07:41.436Z,7.28
2023-02-14T10:10:45.639Z,8.15
2023-02-14T10:17:08.671Z,8.60
2023-02-14T10:20:31.314Z,7.95
2023-02-14T10:23:47.588Z,7.50
2023-02-14T10:26:51.381Z,7.88
2023-02-14T10:29:53.953Z,9.05
2023-02-14T10:33:18.169Z,6.93
2023-02-14T10:36:51.836Z,7.63
2023-02-14T10:40:30.080Z,8.05
2023-02-14T10:44:13.613Z,8.40
2023-02-14T10:47:41.657Z,7.38
2023-02-14T10:50:47.949Z,7.55
2023-02-14T10:54:22.169Z,7.57
2023-02-14T10:57:38.273Z,7.57
2023-02-14T11:00:48.549Z,8.23
2023-02-14T11:04:03.873Z,8.50
2023-02-14T11:07:13.515Z,6.75
2023-02-14T11:10:16.825Z,9.32
2023-02-14T11:13:36.252Z,7.70
2023-02-14T11:16:38.980Z,9.48
2023-02-14T11:19:41.389Z,8.93
2023-02-14T11:22:43.799Z,8.20
2023-02-14T11:25:51.364Z,8.35
2023-02-14T11:28:57.484Z,10.35
2023-02-14T11:32:11.654Z,9.07
2023-02-14T11:35:24.432Z,10.05
2023-02-14T11:38:35.928Z,8.50
2023-02-14T11:41:52.551Z,8.30
2023-02-14T11:44:56.688Z,8.45
2023-02-14T11:48:25.004Z,8.70
2023-02-14T11:51:42.028Z,9.65
2023-02-14T11:54:49.736Z,7.68
2023-02-14T11:57:52.502Z,8.48
2023-02-14T12:00:55.239Z,7.88
2023-02-14T12:04:00.971Z,9.43
2023-02-14T12:07:14.862Z,8.85
2023-02-14T12:10:24.159Z,6.88
2023-02-14T12:13:27.134Z,7.05
2023-02-14T12:16:41.046Z,6.75
2023-02-14T12:20:15.143Z,5.57
2023-02-14T12:23:38.881Z,5.72
2023-02-14T12:26:58.221Z,7.13
2023-02-14T12:30:12.798Z,8.25
2023-02-14T12:33:19.560Z,7.65
2023-02-14T12:36:40.172Z,6.90
2023-02-14T12:39:54.972Z,8.05
2023-02-14T12:43:21.259Z,7.88
2023-02-14T12:46:49.234Z,6.10
2023-02-14T12:50:28.700Z,7.10
2023-02-14T12:53:59.143Z,5.63
2023-02-14T12:57:27.841Z,7.78
2023-02-14T13:01:04.332Z,6.25
2023-02-14T13:04:15.710Z,7.38
2023-02-14T13:07:27.576Z,6.20
2023-02-14T13:10:57.553Z,5.38
2023-02-14T13:14:08.011Z,5.82
2023-02-14T13:17:19.170Z,6.35
2023-02-14T13:20:21.587Z,6.55
2023-02-14T13:23:40.424Z,5.38
2023-02-14T13:26:45.581Z,6.30
2023-02-14T13:29:51.205Z,7.18
2023-02-14T13:32:54.533Z,7.97
2023-02-14T13:36:02.753Z,6.27
2023-02-14T13:39:05.632Z,6.13
2023-02-14T13:42:08.300Z,5.90
2023-02-14T13:45:35.260Z,7.00
2023-02-14T13:48:39.145Z,6.32
2023-02-14T13:51:48.927Z,7.10
2023-02-14T13:54:51.404Z,6.35
2023-02-14T13:58:04.121Z,5.78
2023-02-14T14:01:34.398Z,7.05
2023-02-14T14:04:38.053Z,6.05
2023-02-14T14:07:40.409Z,6.63
2023-02-14T14:10:59.943Z,6.70
2023-02-14T14:14:04.793Z,6.43
2023-02-14T14:17:20.054Z,6.22
2023-02-14T14:20:23.324Z,5.75
2023-02-14T14:23:40.124Z,6.47
2023-02-14T14:26:59.070Z,5.65
2023-02-14T14:30:04.930Z,6.35
2023-02-14T14:33:29.145Z,8.35
2023-02-14T14:36:31.562Z,11.45
2023-02-14T14:39:35.797Z,7.07
2023-02-14T14:45:41.978Z,6.95
2023-02-14T14:48:51.987Z,5.55
2023-02-14T14:51:56.771Z,5.75
2023-02-14T14:55:00.210Z,5.75
2023-02-14T14:58:06.280Z,5.22
2023-02-14T15:01:14.418Z,6.78
2023-02-14T15:04:27.517Z,6.30
2023-02-14T15:07:36.730Z,6.25
2023-02-14T15:10:39.284Z,6.13
2023-02-14T15:13:50.842Z,6.20
2023-02-14T15:17:06.718Z,6.18
2023-02-14T15:20:18.757Z,7.15
2023-02-14T15:23:24.894Z,8.82
2023-02-14T15:26:38.092Z,11.68
2023-02-14T15:29:40.503Z,8.88
2023-02-14T15:32:43.072Z,9.57
2023-02-14T15:35:45.630Z,10.25
2023-02-14T15:38:48.289Z,9.40
2023-02-14T15:41:54.187Z,11.90
2023-02-14T15:45:22.818Z,11.27
2023-02-14T15:48:29.698Z,11.10
2023-02-14T15:51:33.552Z,11.45
2023-02-14T15:54:45.037Z,10.10
2023-02-14T15:57:55.217Z,10.38
2023-02-14T16:00:57.910Z,11.57
2023-02-14T16:04:03.529Z,13.07
2023-02-14T16:07:25.672Z,12.77
2023-02-14T16:10:38.666Z,13.90
2023-02-14T16:13:43.633Z,12.68
2023-02-14T16:17:24.825Z,13.60
2023-02-14T16:20:31.846Z,20.27
2023-02-14T16:23:37.027Z,15.65
2023-02-14T16:26:44.201Z,18.73
2023-02-14T16:29:46.594Z,17.45
2023-02-14T16:32:53.818Z,18.25
2023-02-14T16:36:01.488Z,17.98
2023-02-14T16:39:05.236Z,21.83
2023-02-14T16:42:14.615Z,21.08
2023-02-14T16:45:19.038Z,21.92
2023-02-14T16:48:21.864Z,24.70
2023-02-14T16:51:34.549Z,23.38
2023-02-14T16:54:37.632Z,20.00
2023-02-14T16:57:42.239Z,22.83
2023-02-14T17:00:44.783Z,31.58
2023-02-14T17:03:47.131Z,55.15
2023-02-14T17:06:55.044Z,28.40
2023-02-14T17:10:04.470Z,28.08
2023-02-14T17:13:07.506Z,29.48
2023-02-14T17:16:11.975Z,49.10
2023-02-14T17:19:14.813Z,42.40
2023-02-14T17:22:17.382Z,35.17
2023-02-14T17:25:19.857Z,34.17
2023-02-14T17:28:22.504Z,35.90
2023-02-14T17:31:25.231Z,33.70
2023-02-14T17:34:32.325Z,31.48
2023-02-14T17:37:35.439Z,30.60
2023-02-14T17:40:38.317Z,26.30
2023-02-14T17:43:41.005Z,22.20
2023-02-14T17:46:43.526Z,26.15
2023-02-14T17:49:49.554Z,26.95
2023-02-14T17:52:56.298Z,28.70
2023-02-14T17:55:59.024Z,25.50
2023-02-14T17:59:01.532Z,30.27
2023-02-14T18:02:04.215Z,29.15
2023-02-14T18:05:07.825Z,22.85
2023-02-14T18:08:10.309Z,22.27
2023-02-14T18:11:14.140Z,21.45
2023-02-14T18:14:16.608Z,21.13
2023-02-14T18:17:19.039Z,20.27
2023-02-14T18:20:21.564Z,20.98
2023-02-14T18:23:24.037Z,20.38
2023-02-14T18:26:27.010Z,19.05
2023-02-14T18:29:29.858Z,19.00
2023-02-14T18:32:32.355Z,19.58
2023-02-14T18:35:35.689Z,19.85
2023-02-14T18:38:38.614Z,20.23
2023-02-14T18:41:41.096Z,21.55
2023-02-14T18:44:45.005Z,23.05
2023-02-14T18:47:47.540Z,21.13
2023-02-14T18:50:51.872Z,23.40
2023-02-14T18:53:56.966Z,21.63
2023-02-14T18:56:59.772Z,21.98
2023-02-14T19:00:06.965Z,20.23
2023-02-14T19:03:09.443Z,24.27
2023-02-14T19:06:13.980Z,23.42
2023-02-14T19:09:18.794Z,26.20
2023-02-14T19:12:21.151Z,26.77
2023-02-14T19:15:23.723Z,26.08
2023-02-14T19:18:26.394Z,27.85
2023-02-14T19:21:31.806Z,29.92
2023-02-14T19:24:34.447Z,29.88
2023-02-14T19:27:37.400Z,29.63
2023-02-14T19:30:39.917Z,29.23
2023-02-14T19:33:44.812Z,26.88
2023-02-14T19:36:47.979Z,27.02
2023-02-14T19:39:51.258Z,21.80
2023-02-14T19:42:53.993Z,30.48
2023-02-14T19:45:56.680Z,31.08
2023-02-14T19:48:59.744Z,53.47
2023-02-14T19:52:06.310Z,65.53
2023-02-14T19:55:21.711Z,69.72
2023-02-14T19:58:26.107Z,81.00
2023-02-14T20:01:32.563Z,78.05
2023-02-14T20:04:34.971Z,80.60
2023-02-14T20:07:37.462Z,76.68
2023-02-14T20:10:40.055Z,66.35
2023-02-14T20:13:42.594Z,59.83
2023-02-14T20:16:46.038Z,85.10
2023-02-14T20:19:49.122Z,99.65
2023-02-14T20:22:51.799Z,108.68
2023-02-14T20:25:54.248Z,105.30
2023-02-14T20:28:59.488Z,85.13
2023-02-14T20:32:04.976Z,71.78
2023-02-14T20:35:07.800Z,66.78
2023-02-14T20:38:10.984Z,75.40
2023-02-14T20:41:16.736Z,50.33
2023-02-14T20:44:21.760Z,55.40
2023-02-14T20:47:24.466Z,43.10
2023-02-14T20:50:26.863Z,33.75
2023-02-14T20:53:29.191Z,31.65
2023-02-14T20:56:31.516Z,38.47
2023-02-14T20:59:33.950Z,43.33
2023-02-14T21:02:36.302Z,46.95
2023-02-14T21:05:38.678Z,45.42
2023-02-14T21:08:42.652Z,36.47
2023-02-14T21:14:47.400Z,34.20
2023-02-14T21:17:49.794Z,39.30
2023-02-14T21:20:52.175Z,37.97
2023-02-14T21:23:54.621Z,29.85
2023-02-14T21:26:57.041Z,29.27
2023-02-14T21:29:59.540Z,30.15
2023-02-14T21:33:02.400Z,38.60
2023-02-14T21:36:15.585Z,38.78
2023-02-14T21:39:19.092Z,32.92
2023-02-14T21:42:21.669Z,31.55
2023-02-14T21:45:42.856Z,28.98
2023-02-14T21:49:04.820Z,30.48
2023-02-14T21:52:07.236Z,33.78
2023-02-14T21:55:09.980Z,38.42
2023-02-14T21:58:15.296Z,37.58
2023-02-14T22:01:21.782Z,39.10
2023-02-14T22:04:24.730Z,32.72
2023-02-14T22:07:30.349Z,28.80
2023-02-14T22:10:32.860Z,29.92
2023-02-14T22:13:35.640Z,28.73
2023-02-14T22:16:38.300Z,34.95
2023-02-14T22:19:41.254Z,30.92
2023-02-14T22:22:43.652Z,28.57
2023-02-14T22:25:46.230Z,33.33
2023-02-14T22:28:49.928Z,38.60
2023-02-14T22:31:52.688Z,34.97
2023-02-14T22:34:55.165Z,34.03
2023-02-14T22:37:57.687Z,32.47
2023-02-14T22:41:06.848Z,32.97
2023-02-14T22:44:09.816Z,32.70
2023-02-14T22:47:12.127Z,31.50
2023-02-14T22:50:14.756Z,40.97
2023-02-14T22:53:17.270Z,36.75
2023-02-14T22:56:28.681Z,40.38
2023-02-14T22:59:32.309Z,37.00
2023-02-14T23:02:35.063Z,35.90
2023-02-14T23:05:37.594Z,38.20
2023-02-14T23:08:45.038Z,44.40
2023-02-14T23:11:47.537Z,41.70
2023-02-14T23:15:08.663Z,40.33
2023-02-14T23:18:31.808Z,40.33
2023-02-14T23:21:53.173Z,38.22
2023-02-14T23:24:57.573Z,40.15
2023-02-14T23:27:59.992Z,35.58
2023-02-14T23:31:03.112Z,40.72
2023-02-14T23:34:05.457Z,30.03
2023-02-14T23:37:08.646Z,40.90
2023-02-14T23:40:11.439Z,37.22
2023-02-14T23:43:13.878Z,40.22
2023-02-14T23:46:16.521Z,45.40
2023-02-14T23:49:19.436Z,42.80
2023-02-14T23:52:21.859Z,42.53
2023-02-14T23:55:24.182Z,44.83
2023-02-14T23:58:26.494Z,49.58
